Time;durP1;ratioP1;P1;durP2;ratioP2;P2;SDS_P1;SDS_P2;PMS_P1;PMS_P2;Temp;Humidity;BMP_temperature;BMP_pressure;BME280_temperature;BME280_humidity;BME280_pressure;Samples;Min_cycle;Max_cycle;Signal;HPM_P1;HPM_P2
2022/08/18 00:00:33;;;;;;;173.63;92.35;;;;;;;;;;4929983;28;20718;-77
2022/08/18 00:03:05;;;;;;;174.45;96.15;;;;;;;19.16;100.00;68899.03;4928626;28;20487;-77
2022/08/18 00:05:30;;;;;;;186.75;101.15;;;;;;;;;;4930508;28;20055;-78
2022/08/18 00:07:56;;;;;;;178.98;98.85;;;;;;;19.20;100.00;68909.00;4929328;28;20039;-77
2022/08/18 00:10:22;;;;;;;180.32;101.20;;;;;;;19.25;100.00;68909.34;4930272;28;20035;-77
2022/08/18 00:12:47;;;;;;;187.15;103.35;;;;;;;19.27;100.00;68911.59;4927807;28;20051;-77
2022/08/18 00:15:13;;;;;;;191.55;105.93;;;;;;;;;;4931533;28;20039;-77
2022/08/18 00:17:39;;;;;;;187.88;99.50;;;;;;;19.19;100.00;68901.91;4930431;28;20065;-77
2022/08/18 00:20:08;;;;;;;208.38;111.28;;;;;;;19.27;100.00;68911.03;4929369;28;20051;-77
2022/08/18 00:22:34;;;;;;;211.43;105.43;;;;;;;19.21;100.00;68904.19;4924648;28;20254;-77
2022/08/18 00:25:00;;;;;;;197.68;100.40;;;;;;;19.23;100.00;68906.47;4928883;28;20068;-77
2022/08/18 00:27:30;;;;;;;201.90;103.25;;;;;;;19.16;100.00;68904.44;4931326;28;20403;-77
2022/08/18 00:30:02;;;;;;;192.68;93.15;;;;;;;19.20;100.00;68909.00;4929125;28;20078;-77
2022/08/18 00:32:40;;;;;;;192.00;102.05;;;;;;;19.19;100.00;68902.47;4929268;29;20043;-77
2022/08/18 00:35:20;;;;;;;212.07;114.38;;;;;;;19.30;100.00;68920.44;4929198;29;20044;-77
2022/08/18 00:37:47;;;;;;;196.38;108.50;;;;;;;19.32;100.00;68922.16;4928381;29;20431;-77
2022/08/18 00:40:17;;;;;;;194.52;106.88;;;;;;;19.37;100.00;68922.47;4927031;29;20051;-77
2022/08/18 00:42:47;;;;;;;183.05;101.65;;;;;;;19.39;100.00;68924.75;4928746;29;20039;-77
2022/08/18 00:45:27;;;;;;;180.50;100.75;;;;;;;19.36;100.00;68926.72;4925007;29;20051;-77
2022/08/18 00:47:53;;;;;;;177.48;97.57;;;;;;;;;;4926653;29;20047;-77
2022/08/18 00:50:23;;;;;;;165.98;98.13;;;;;;;;;;4927514;29;20051;-77
2022/08/18 00:52:55;;;;;;;174.65;98.93;;;;;;;;;;4930080;29;20036;-77
2022/08/18 00:55:23;;;;;;;171.85;96.18;;;;;;;19.44;100.00;68929.88;4929445;29;20050;-77
2022/08/18 00:57:50;;;;;;;170.83;95.27;;;;;;;19.43;100.00;68929.31;4925158;29;20094;-78
2022/08/18 01:00:16;;;;;;;168.32;98.82;;;;;;;;;;4926597;29;20036;-77
2022/08/18 01:02:46;;;;;;;164.27;95.53;;;;;;;19.46;100.00;68932.75;4929976;29;20046;-77
2022/08/18 01:05:18;;;;;;;156.70;96.72;;;;;;;;;;4930340;29;20123;-77
2022/08/18 01:07:46;;;;;;;165.57;100.13;;;;;;;19.45;100.00;68928.91;4928477;29;20039;-78
2022/08/18 01:10:17;;;;;;;162.02;95.88;;;;;;;19.44;100.00;68929.88;4929389;29;20050;-77
2022/08/18 01:12:44;;;;;;;165.70;97.85;;;;;;;19.43;100.00;68934.16;4928605;29;20031;-77
2022/08/18 01:15:14;;;;;;;175.32;102.15;;;;;;;19.41;100.00;68927.03;4927945;29;20309;-77
2022/08/18 01:23:16;;;;;;;191.70;104.50;;;;;;;19.39;100.00;68925.31;4909447;29;20059;-77
2022/08/18 01:25:59;;;;;;;184.13;101.80;;;;;;;;;;4928960;29;20040;-76
2022/08/18 01:28:26;;;;;;;188.27;105.78;;;;;;;19.35;100.00;68917.47;4928443;29;20039;-77
2022/08/18 01:30:57;;;;;;;182.70;100.82;;;;;;;;;;4925719;29;20402;-77
2022/08/18 01:33:25;;;;;;;181.90;100.20;;;;;;;19.31;100.00;68916.19;4929250;29;20083;-77
2022/08/18 01:35:52;;;;;;;178.00;102.15;;;;;;;19.35;100.00;68920.19;4925986;29;20126;-77
2022/08/18 01:38:21;;;;;;;175.45;100.45;;;;;;;19.35;100.00;68926.16;4910060;29;20613;-77
2022/08/18 01:40:47;;;;;;;165.73;98.05;;;;;;;19.34;100.00;68919.63;4909347;29;20047;-77
2022/08/18 01:43:13;;;;;;;170.10;94.15;;;;;;;;;;4927992;29;20040;-77
2022/08/18 01:45:40;;;;;;;162.32;93.30;;;;;;;19.35;100.00;68920.19;4914131;29;20039;-77
2022/08/18 01:48:07;;;;;;;173.88;97.35;;;;;;;19.36;100.00;68926.72;4929120;29;20114;-77
2022/08/18 01:50:34;;;;;;;170.38;97.82;;;;;;;19.30;100.00;68911.75;4932599;29;20067;-76
2022/08/18 01:53:04;;;;;;;181.30;105.45;;;;;;;19.34;100.00;68916.34;4931316;29;20043;-77
2022/08/18 01:55:30;;;;;;;174.98;99.68;;;;;;;19.40;100.00;68925.91;4915680;29;20043;-77
2022/08/18 01:57:56;;;;;;;172.65;96.38;;;;;;;;;;4930768;29;20039;-77
2022/08/18 02:00:21;;;;;;;178.20;101.13;;;;;;;19.31;100.00;68916.19;4917575;29;20052;-77
2022/08/18 02:02:50;;;;;;;181.90;106.18;;;;;;;19.28;100.00;68912.19;4934458;29;20561;-78
2022/08/18 02:05:20;;;;;;;185.18;98.13;;;;;;;19.23;100.00;68906.47;4936113;29;20043;-78
2022/08/18 02:07:45;;;;;;;187.57;99.60;;;;;;;19.20;100.00;68908.44;4935176;29;20095;-77
2022/08/18 02:10:10;;;;;;;180.30;98.10;;;;;;;;;;4935937;29;20106;-78
2022/08/18 02:12:37;;;;;;;192.35;103.90;;;;;;;19.10;100.00;68892.78;4936092;29;20052;-78
2022/08/18 02:15:06;;;;;;;185.70;103.43;;;;;;;19.02;100.00;68880.94;4936232;29;20078;-78
2022/08/18 02:17:38;;;;;;;;;;;;;;;18.98;100.00;68878.47;4936879;29;20065;-78
2022/08/18 02:20:04;;;;;;;176.60;95.82;;;;;;;18.92;100.00;68872.75;4926483;29;20156;-78
2022/08/18 02:22:31;;;;;;;181.20;95.40;;;;;;;18.97;100.00;68877.91;4935718;29;20075;-77
2022/08/18 02:24:57;;;;;;;182.80;101.65;;;;;;;19.00;100.00;68878.63;4918303;29;20050;-78
2022/08/18 02:27:22;;;;;;;182.35;91.18;;;;;;;18.98;100.00;68876.34;4936408;29;20236;-78
2022/08/18 02:29:47;;;;;;;194.82;93.32;;;;;;;18.94;100.00;68874.50;4935418;29;20051;-77
2022/08/18 02:32:13;;;;;;;200.13;97.25;;;;;;;;;;4937651;29;20099;-77
2022/08/18 02:34:40;;;;;;;204.02;105.63;;;;;;;18.95;100.00;68875.63;4928752;29;20818;-77
2022/08/18 02:37:05;;;;;;;188.18;98.13;;;;;;;18.88;100.00;68875.72;4914830;29;20084;-77
2022/08/18 02:39:32;;;;;;;188.27;91.60;;;;;;;;;;4915171;29;20111;-77
2022/08/18 02:41:58;;;;;;;199.60;96.38;;;;;;;18.87;100.00;68867.06;4915390;29;20047;-77
2022/08/18 02:44:23;;;;;;;203.32;97.65;;;;;;;18.87;100.00;68867.06;4933574;29;20407;-77
2022/08/18 02:46:53;;;;;;;210.95;107.55;;;;;;;18.89;100.00;68869.34;4925600;29;20043;-77
2022/08/18 02:49:18;;;;;;;221.13;99.97;;;;;;;18.87;100.00;68867.06;4927203;29;20047;-77
2022/08/18 02:51:45;;;;;;;222.30;102.82;;;;;;;18.83;100.00;68861.91;4926056;29;20040;-77
2022/08/18 02:54:10;;;;;;;226.65;102.22;;;;;;;18.82;100.00;68866.19;4927406;29;20079;-77
2022/08/18 02:56:35;;;;;;;243.35;110.22;;;;;;;18.81;100.00;68856.94;4929225;29;20130;-76
2022/08/18 02:59:05;;;;;;;232.60;112.35;;;;;;;;;;4929798;29;20043;-76
2022/08/18 03:01:39;;;;;;;218.60;106.50;;;;;;;18.85;100.00;68861.50;4928359;29;20477;-77
2022/08/18 03:04:06;;;;;;;234.57;111.88;;;;;;;;;;4926896;29;20040;-77
2022/08/18 03:06:32;;;;;;;239.35;115.53;;;;;;;18.81;100.00;68865.59;4928939;29;20058;-77
2022/08/18 03:08:58;;;;;;;228.45;103.10;;;;;;;18.78;100.00;68856.22;4924158;29;20839;-77
2022/08/18 03:11:27;;;;;;;237.00;119.82;;;;;;;18.84;100.00;68863.63;4929861;29;20135;-77
2022/08/18 03:13:53;;;;;;;234.30;107.25;;;;;;;18.88;100.00;68864.94;4930032;29;20130;-77
2022/08/18 03:16:20;;;;;;;220.10;107.88;;;;;;;18.78;100.00;68853.50;4929899;29;20511;-77
2022/08/18 03:18:46;;;;;;;235.85;115.82;;;;;;;18.77;100.00;68855.63;4930166;29;20051;-77
2022/08/18 03:21:20;;;;;;;236.20;101.70;;;;;;;18.74;100.00;68846.25;4928741;29;20048;-76
2022/08/18 03:23:46;;;;;;;240.10;111.50;;;;;;;18.71;100.00;68854.72;4930227;29;20043;-77
2022/08/18 03:26:14;;;;;;;232.25;110.70;;;;;;;18.77;100.00;68855.63;4929672;29;20071;-77
2022/08/18 03:28:41;;;;;;;237.88;115.93;;;;;;;;;;4933329;29;20071;-77
2022/08/18 03:31:08;;;;;;;242.85;116.40;;;;;;;18.75;100.00;68852.78;4930409;29;20047;-77
2022/08/18 03:33:34;;;;;;;229.88;107.03;;;;;;;18.74;100.00;68857.03;4931230;29;20046;-77
2022/08/18 03:36:07;;;;;;;234.63;117.40;;;;;;;18.78;100.00;68856.78;4927990;29;20035;-77
2022/08/18 03:38:32;;;;;;;225.00;103.60;;;;;;;;;;4930869;29;20036;-77
2022/08/18 03:40:57;;;;;;;243.77;115.15;;;;;;;;;;4929384;29;20410;-77
2022/08/18 03:43:23;;;;;;;241.77;119.20;;;;;;;;;;4922339;29;20047;-77
2022/08/18 03:45:49;;;;;;;239.23;113.95;;;;;;;;;;4928722;29;20703;-76
2022/08/18 03:48:14;;;;;;;231.23;113.60;;;;;;;18.83;100.00;68861.91;4932154;29;20300;-77
2022/08/18 03:50:40;;;;;;;229.57;105.28;;;;;;;18.79;100.00;68857.34;4928139;29;20047;-77
2022/08/18 03:53:05;;;;;;;226.88;110.60;;;;;;;18.80;100.00;68863.88;4928684;29;20071;-77
2022/08/18 03:55:31;;;;;;;229.50;109.07;;;;;;;18.88;100.00;68864.94;4927343;29;20487;-77
2022/08/18 03:58:03;;;;;;;198.13;111.53;;;;;;;18.80;100.00;68858.50;4926771;29;20052;-77
2022/08/18 04:00:29;;;;;;;187.98;103.85;;;;;;;;;;4928664;29;20493;-77
2022/08/18 04:02:56;;;;;;;180.75;101.97;;;;;;;18.81;100.00;68859.63;4922486;29;20044;-77
2022/08/18 04:05:21;;;;;;;167.90;91.47;;;;;;;18.81;100.00;68859.63;4929896;29;20031;-77
2022/08/18 04:07:47;;;;;;;148.15;88.88;;;;;;;18.84;100.00;68863.63;4925588;29;20052;-76
2022/08/18 04:10:12;;;;;;;117.97;71.38;;;;;;;;;;4925870;29;20111;-77
2022/08/18 04:12:40;;;;;;;118.78;68.43;;;;;;;18.77;100.00;68855.63;4926880;29;20054;-77
2022/08/18 04:15:05;;;;;;;102.10;64.55;;;;;;;;;;4921471;29;20044;-77
2022/08/18 04:17:31;;;;;;;95.50;59.58;;;;;;;;;;4925068;29;20098;-77
2022/08/18 04:19:56;;;;;;;92.22;55.50;;;;;;;;;;4927758;29;20040;-77
2022/08/18 04:22:23;;;;;;;80.97;54.70;;;;;;;18.69;100.00;68851.88;4925814;29;20040;-76
2022/08/18 04:24:49;;;;;;;80.13;54.67;;;;;;;;;;4927693;29;20287;-77
2022/08/18 04:27:14;;;;;;;76.25;48.47;;;;;;;18.67;100.00;68844.78;4924310;28;20387;-76
2022/08/18 04:29:40;;;;;;;75.00;49.53;;;;;;;18.63;100.00;68840.19;4930873;28;20523;-76
2022/08/18 04:32:05;;;;;;;76.10;52.80;;;;;;;18.62;100.00;68843.88;4926735;29;20048;-77
2022/08/18 04:34:32;;;;;;;78.68;54.05;;;;;;;18.61;100.00;68843.28;4928267;29;20131;-77
2022/08/18 04:36:58;;;;;;;76.47;53.60;;;;;;;18.61;100.00;68843.28;4927129;29;20043;-77
2022/08/18 04:39:24;;;;;;;76.68;52.25;;;;;;;18.54;100.00;68827.22;4927689;29;20070;-76
2022/08/18 04:41:50;;;;;;;79.95;48.58;;;;;;;18.54;100.00;68829.34;4924345;29;20047;-76
2022/08/18 04:44:17;;;;;;;78.28;52.90;;;;;;;;;;4928561;29;20549;-77
2022/08/18 04:46:48;;;;;;;75.35;52.40;;;;;;;;;;4924351;29;20138;-76
2022/08/18 04:49:15;;;;;;;72.72;50.50;;;;;;;18.55;100.00;68830.50;4922202;29;20495;-76
2022/08/18 04:54:37;;;;;;;69.60;49.17;;;;;;;18.52;100.00;68824.94;4912709;29;20058;-76
2022/08/18 04:57:08;;;;;;;69.03;49.67;;;;;;;18.55;100.00;68831.06;4927153;29;20079;-77
2022/08/18 04:59:34;;;;;;;68.45;49.08;;;;;;;18.55;100.00;68831.06;4929358;29;20338;-77
2022/08/18 05:02:04;;;;;;;66.55;44.03;;;;;;;18.48;100.00;68823.66;4926161;29;20039;-77
2022/08/18 05:04:30;;;;;;;66.28;47.03;;;;;;;18.45;100.00;68819.66;4927734;29;20055;-76
2022/08/18 05:06:56;;;;;;;66.72;47.85;;;;;;;18.47;100.00;68821.91;4925701;29;20261;-76
2022/08/18 05:09:21;;;;;;;61.83;43.92;;;;;;;18.37;100.00;68811.09;4928939;29;20168;-76
2022/08/18 05:11:46;;;;;;;64.68;45.63;;;;;;;18.37;100.00;68811.09;4922053;29;20184;-76
2022/08/18 05:14:12;;;;;;;66.72;46.47;;;;;;;18.35;100.00;68805.53;4928062;29;20122;-76
2022/08/18 05:16:38;;;;;;;64.00;44.35;;;;;;;18.29;100.00;68801.38;4923067;29;20040;-76
2022/08/18 05:19:12;;;;;;;59.95;43.63;;;;;;;18.27;100.00;68800.25;4920058;29;20036;-77
2022/08/18 05:21:41;;;;;;;53.42;34.60;;;;;;;18.25;100.00;68797.94;4928567;29;20043;-76
2022/08/18 05:24:08;;;;;;;56.95;39.30;;;;;;;18.24;100.00;68791.44;4931248;29;20665;-77
2022/08/18 05:26:34;;;;;;;56.70;39.35;;;;;;;;;;4927175;29;20154;-76
2022/08/18 05:28:59;;;;;;;57.40;37.28;;;;;;;;;;4925988;29;20111;-76
2022/08/18 05:31:27;;;;;;;58.03;38.80;;;;;;;18.30;100.00;68799.81;4927826;29;20042;-76
2022/08/18 05:33:55;;;;;;;61.38;41.97;;;;;;;18.36;100.00;68809.94;4924619;29;20307;-76
2022/08/18 05:36:49;;;;;;;54.92;36.97;;;;;;;18.40;100.00;68811.25;4928586;29;20051;-76
2022/08/18 05:39:24;;;;;;;56.72;36.70;;;;;;;18.39;100.00;68810.69;4927549;29;20071;-76
2022/08/18 05:41:50;;;;;;;56.25;36.45;;;;;;;18.38;100.00;68811.66;4930161;29;20042;-77
2022/08/18 05:44:17;;;;;;;52.80;35.85;;;;;;;;;;4930950;29;20048;-77
2022/08/18 05:46:44;;;;;;;56.42;40.05;;;;;;;;;;4931256;29;20119;-77
2022/08/18 05:49:11;;;;;;;52.65;36.17;;;;;;;18.46;100.00;68818.09;4914514;29;20282;-76
2022/08/18 05:51:49;;;;;;;50.10;37.42;;;;;;;18.48;100.00;68823.66;4925292;29;20399;-76
2022/08/18 05:57:10;;;;;;;48.17;33.00;;;;;;;18.49;100.00;68829.59;4927207;29;20427;-76
2022/08/18 05:59:38;;;;;;;46.55;34.75;;;;;;;18.48;100.00;68823.06;4929237;29;20131;-77
2022/08/18 06:02:26;;;;;;;43.00;31.90;;;;;;;18.52;100.00;68827.63;4912834;29;20056;-76
2022/08/18 06:04:55;;;;;;;43.90;33.90;;;;;;;18.57;100.00;68832.78;4893769;29;20119;-77
2022/08/18 06:07:33;;;;;;;;;;;;;;;18.61;100.00;68837.91;4931435;29;20567;-77
2022/08/18 06:09:58;;;;;;;40.35;30.63;;;;;;;18.57;100.00;68838.75;4929041;29;19918;-76
2022/08/18 06:12:32;;;;;;;42.33;30.55;;;;;;;18.60;100.00;68836.19;4932709;29;20058;-77
2022/08/18 06:15:12;;;;;;;39.58;27.92;;;;;;;18.57;100.00;68830.09;4930848;29;20040;-77
2022/08/18 06:18:08;;;;;;;39.13;24.73;;;;;;;18.60;100.00;68831.38;4930142;29;20384;-76
2022/08/18 06:20:36;;;;;;;40.13;29.23;;;;;;;;;;4913706;29;20454;-77
2022/08/18 06:23:17;;;;;;;38.53;26.70;;;;;;;18.65;100.00;68841.91;4931957;29;20107;-77
2022/08/18 06:26:03;;;;;;;37.47;26.75;;;;;;;18.69;100.00;68847.03;4930858;29;20601;-77
2022/08/18 06:28:44;;;;;;;38.92;27.60;;;;;;;18.75;100.00;68852.78;4928390;29;20047;-76
2022/08/18 06:31:18;;;;;;;35.03;23.30;;;;;;;18.71;100.00;68848.78;4929394;29;20055;-77
2022/08/18 06:34:00;;;;;;;38.15;27.65;;;;;;;18.71;100.00;68848.78;4930127;29;20642;-77
2022/08/18 06:37:12;;;;;;;38.47;28.65;;;;;;;18.72;100.00;68855.88;4927755;29;20600;-76
2022/08/18 06:39:48;;;;;;;35.88;27.08;;;;;;;18.83;100.00;68867.31;4871153;29;20144;-77
2022/08/18 06:42:20;;;;;;;35.28;25.92;;;;;;;18.79;100.00;68863.31;4910337;29;20549;-77
2022/08/18 06:44:54;;;;;;;35.17;24.45;;;;;;;18.71;100.00;68846.63;4934621;28;20046;-76
2022/08/18 06:47:28;;;;;;;36.95;27.38;;;;;;;;;;4918322;29;20055;-77
2022/08/18 06:50:04;;;;;;;36.72;27.27;;;;;;;18.90;100.00;68875.31;4924722;29;20576;-76
2022/08/18 06:52:32;;;;;;;37.05;25.05;;;;;;;18.87;100.00;68866.47;4910969;29;20093;-76
2022/08/18 06:55:10;;;;;;;36.15;25.98;;;;;;;18.87;100.00;68861.09;4927830;29;20148;-77
2022/08/18 06:57:50;;;;;;;33.55;22.60;;;;;;;18.92;100.00;68872.19;4918106;29;20071;-77
2022/08/18 07:00:16;;;;;;;37.13;25.42;;;;;;;18.84;100.00;68860.94;4925689;29;20055;-77
2022/08/18 07:02:50;;;;;;;35.28;25.95;;;;;;;19.01;100.00;68882.47;4925654;29;20737;-76
2022/08/18 07:05:27;;;;;;;35.88;28.38;;;;;;;19.00;100.00;68881.34;4926146;29;20063;-76
2022/08/18 07:08:10;;;;;;;34.03;27.08;;;;;;;;;;4922761;29;20047;-76
2022/08/18 07:10:43;;;;;;;35.88;25.48;;;;;;;19.02;100.00;68883.63;4926637;29;20056;-77
2022/08/18 07:13:11;;;;;;;34.15;25.35;;;;;;;;;;4925766;29;20055;-77
2022/08/18 07:15:36;;;;;;;41.95;26.17;;;;;;;;;;4910914;29;20043;-77
2022/08/18 07:18:06;;;;;;;37.13;29.77;;;;;;;;;;4926038;29;20042;-76
2022/08/18 07:20:48;;;;;;;33.67;26.92;;;;;;;19.04;100.00;68891.28;4928839;29;20047;-77
2022/08/18 07:23:27;;;;;;;36.60;26.27;;;;;;;19.12;100.00;68895.03;4926437;29;20032;-77
2022/08/18 07:25:52;;;;;;;;;;;;;;;;;;4925813;29;20051;-76
2022/08/18 07:28:37;;;;;;;34.00;25.80;;;;;;;;;;4928897;29;19914;-77
2022/08/18 07:31:46;;;;;;;37.33;27.42;;;;;;;19.06;100.00;68887.63;4920204;29;20663;-77
2022/08/18 07:34:16;;;;;;;35.53;27.55;;;;;;;;;;4912037;29;20931;-77
2022/08/18 07:37:07;;;;;;;30.73;23.70;;;;;;;19.16;100.00;68899.63;4926545;29;20051;-77
2022/08/18 07:39:44;;;;;;;32.33;24.85;;;;;;;;;;4908003;29;20047;-76
2022/08/18 07:42:13;;;;;;;32.97;26.08;;;;;;;;;;4928043;29;20052;-76
2022/08/18 07:44:52;;;;;;;;;;;;;;;19.17;100.00;68900.75;4929138;29;20577;-74
2022/08/18 07:47:21;;;;;;;;;;;;;;;19.15;100.00;68897.91;4928146;29;19926;-77
2022/08/18 07:49:46;;;;;;;;;;;;;;;19.19;100.00;68901.91;4930423;29;20492;-77
2022/08/18 07:52:28;;;;;;;33.90;25.92;;;;;;;19.17;100.00;68906.16;4930558;29;19958;-74
2022/08/18 07:55:09;;;;;;;33.78;25.10;;;;;;;19.08;100.00;68890.47;4930463;29;20040;-77
2022/08/18 07:57:46;;;;;;;31.63;22.75;;;;;;;19.16;100.00;68896.34;4929070;29;20046;-77
2022/08/18 08:00:22;;;;;;;29.50;22.73;;;;;;;19.23;100.00;68903.78;4931102;29;20384;-76
2022/08/18 08:03:25;;;;;;;30.52;24.80;;;;;;;19.18;100.00;68901.31;4926951;29;20043;-77
2022/08/18 08:06:02;;;;;;;30.90;25.13;;;;;;;19.10;100.00;68892.78;4924618;29;20123;-74
2022/08/18 08:08:41;;;;;;;28.20;22.90;;;;;;;19.20;100.00;68898.22;4928834;29;20067;-74
2022/08/18 08:11:19;;;;;;;27.77;21.55;;;;;;;19.28;100.00;68912.19;4926822;29;20063;-76
2022/08/18 08:14:34;;;;;;;27.80;23.02;;;;;;;19.25;100.00;68908.75;4927106;29;20431;-76
2022/08/18 08:17:11;;;;;;;26.70;21.38;;;;;;;19.27;100.00;68911.03;4904777;29;20044;-76
2022/08/18 08:19:54;;;;;;;25.58;22.02;;;;;;;19.25;100.00;68914.13;4924997;29;20044;-76
2022/08/18 08:22:27;;;;;;;26.77;20.23;;;;;;;19.24;100.00;68907.59;4927447;29;20161;-77
2022/08/18 08:25:00;;;;;;;25.60;21.65;;;;;;;19.26;100.00;68907.78;4923021;29;20439;-76
2022/08/18 08:27:34;;;;;;;27.48;22.13;;;;;;;19.32;100.00;68916.75;4922915;29;20131;-76
2022/08/18 08:30:06;;;;;;;26.67;21.80;;;;;;;19.37;100.00;68922.47;4922794;29;20179;-75
2022/08/18 08:32:45;;;;;;;24.73;21.15;;;;;;;19.38;100.00;68923.59;4931814;29;20171;-75
2022/08/18 08:35:18;;;;;;;26.55;20.42;;;;;;;19.48;100.00;68940.44;4929292;29;20719;-76
2022/08/18 08:37:50;;;;;;;25.15;20.67;;;;;;;19.45;100.00;68937.00;4914778;29;20048;-75
2022/08/18 08:40:19;;;;;;;26.38;20.42;;;;;;;;;;4932967;28;20071;-76
2022/08/18 08:42:59;;;;;;;25.55;19.10;;;;;;;19.60;100.00;68943.34;4927412;29;20076;-76
2022/08/18 08:45:49;;;;;;;22.35;18.90;;;;;;;19.68;100.00;68951.34;4902216;29;20063;-77
2022/08/18 08:48:25;;;;;;;23.25;18.77;;;;;;;;;;4926807;29;20051;-74
2022/08/18 08:51:00;;;;;;;20.52;17.45;;;;;;;19.71;100.00;68960.19;4922353;29;20055;-74
2022/08/18 08:53:37;;;;;;;21.38;16.30;;;;;;;19.81;100.00;68971.63;4910773;29;20086;-75
2022/08/18 08:56:08;;;;;;;18.63;16.10;;;;;;;19.77;100.00;68967.63;4924895;29;20044;-74
2022/08/18 08:58:43;;;;;;;20.23;14.88;;;;;;;19.86;100.00;68976.78;4913385;29;20047;-77
2022/08/18 09:01:26;;;;;;;20.98;14.90;;;;;;;19.98;100.00;68987.78;4926036;29;20143;-76
2022/08/18 09:04:12;;;;;;;19.08;15.98;;;;;;;;;;4921577;29;20048;-76
2022/08/18 09:07:09;;;;;;;20.15;16.52;;;;;;;20.18;100.00;69010.06;4908848;29;20051;-76
2022/08/18 09:10:08;;;;;;;17.40;13.15;;;;;;;20.21;100.00;69016.22;4880628;29;20533;-76
2022/08/18 09:12:43;;;;;;;16.65;13.15;;;;;;;20.27;99.79;69018.22;4907627;29;20070;-76
2022/08/18 09:15:28;;;;;;;16.77;13.68;;;;;;;20.28;99.62;69024.78;4923337;29;20059;-77
2022/08/18 09:18:18;;;;;;;17.42;13.55;;;;;;;20.32;100.00;69026.09;4920184;29;20044;-77
2022/08/18 09:21:18;;;;;;;16.65;13.52;;;;;;;20.44;100.00;69041.94;4919871;29;20050;-76
2022/08/18 09:23:49;;;;;;;16.20;12.05;;;;;;;20.66;97.47;69066.56;4912551;29;20160;-77
2022/08/18 09:26:34;;;;;;;16.63;12.23;;;;;;;20.73;97.21;69074.56;4906352;29;20052;-77
2022/08/18 09:29:17;;;;;;;19.02;12.90;;;;;;;20.81;96.31;69077.72;4918105;29;20079;-76
2022/08/18 09:31:45;;;;;;;17.15;14.23;;;;;;;20.82;95.03;69076.16;4925426;29;20672;-77
2022/08/18 09:34:31;;;;;;;16.23;12.80;;;;;;;20.86;96.05;69088.84;4922756;29;20126;-77
2022/08/18 09:37:02;;;;;;;15.85;13.10;;;;;;;20.86;93.33;69086.72;4924984;29;20051;-77
2022/08/18 09:42:32;;;;;;;17.38;13.25;;;;;;;20.91;93.20;69089.72;4925429;29;20063;-77
2022/08/18 09:45:01;;;;;;;16.40;12.40;;;;;;;20.96;93.15;69100.84;4924267;29;20047;-77
2022/08/18 09:47:27;;;;;;;;;;;;;;;20.84;92.70;69087.13;4927351;29;20083;-77
2022/08/18 09:50:16;;;;;;;15.07;12.30;;;;;;;20.79;93.41;69076.00;4927298;29;19950;-77
2022/08/18 09:52:42;;;;;;;14.27;11.77;;;;;;;20.91;92.95;69092.41;4913474;29;20042;-77
2022/08/18 09:55:16;;;;;;;15.00;11.68;;;;;;;21.02;91.96;69106.56;4927001;29;20051;-76
2022/08/18 09:57:44;;;;;;;15.18;12.55;;;;;;;21.06;92.29;69106.31;4927972;29;20642;-77
2022/08/18 10:00:13;;;;;;;13.32;11.57;;;;;;;21.20;92.98;69124.44;4927500;29;20112;-77
2022/08/18 10:02:39;;;;;;;16.50;11.40;;;;;;;21.31;92.03;69139.19;4932862;29;20712;-77
2022/08/18 10:05:19;;;;;;;20.10;12.90;;;;;;;21.30;91.67;69135.91;4926856;29;20514;-77
2022/08/18 10:07:57;;;;;;;14.52;12.18;;;;;;;21.37;90.76;69140.66;4913494;29;20048;-77
2022/08/18 10:10:30;;;;;;;16.23;13.10;;;;;;;21.45;90.91;69154.66;4906826;29;20048;-77
2022/08/18 10:13:21;;;;;;;17.38;12.70;;;;;;;21.47;90.55;69151.53;4927761;29;20179;-77
2022/08/18 10:15:55;;;;;;;14.50;12.32;;;;;;;21.57;90.38;69162.97;4923112;29;20044;-77
2022/08/18 10:18:36;;;;;;;14.82;11.80;;;;;;;21.50;89.60;69160.94;4923410;29;20163;-77
2022/08/18 10:21:17;;;;;;;15.57;12.77;;;;;;;;;;4926658;29;20075;-77
2022/08/18 10:23:50;;;;;;;13.77;11.70;;;;;;;21.28;89.60;69130.34;4926571;29;20035;-77
2022/08/18 10:26:36;;;;;;;16.83;12.77;;;;;;;21.34;90.16;69137.75;4906127;29;20538;-77
2022/08/18 10:29:06;;;;;;;12.88;11.57;;;;;;;21.36;89.52;69140.06;4925746;29;20047;-77
2022/08/18 10:32:04;;;;;;;14.95;12.93;;;;;;;21.40;89.38;69149.50;4913564;29;20128;-77
2022/08/18 10:34:47;;;;;;;12.80;10.37;;;;;;;21.52;89.18;69157.25;4912840;29;20080;-76
2022/08/18 10:37:31;;;;;;;12.90;11.40;;;;;;;21.62;87.96;69171.97;4913125;29;20187;-77
2022/08/18 10:40:08;;;;;;;15.82;11.25;;;;;;;21.60;88.06;69166.97;4911021;29;20131;-77
2022/08/18 10:42:41;;;;;;;14.88;12.65;;;;;;;21.62;87.16;69171.97;4930547;29;20091;-77
2022/08/18 10:45:18;;;;;;;14.25;11.40;;;;;;;21.72;88.78;69182.84;4929857;29;20364;-77
2022/08/18 10:47:44;;;;;;;16.88;12.27;;;;;;;21.89;88.08;69203.84;4913049;29;20043;-77
2022/08/18 10:50:19;;;;;;;14.10;11.60;;;;;;;21.98;88.09;69208.72;4930986;29;20102;-77
2022/08/18 10:53:02;;;;;;;14.43;11.07;;;;;;;22.00;86.12;69214.31;4929836;29;20517;-77
2022/08/18 10:55:49;;;;;;;16.15;12.25;;;;;;;22.02;86.66;69216.59;4922292;29;20048;-77
2022/08/18 10:58:14;;;;;;;13.90;12.10;;;;;;;22.02;86.41;69213.91;4927955;29;20051;-76
2022/08/18 11:00:47;;;;;;;14.18;11.80;;;;;;;22.03;86.63;69214.47;4929042;29;20114;-77
2022/08/18 11:03:33;;;;;;;16.65;11.40;;;;;;;21.94;86.67;69209.59;4929047;29;20058;-77
2022/08/18 11:06:05;;;;;;;17.70;12.98;;;;;;;21.93;86.53;69206.31;4920305;29;20059;-77
2022/08/18 11:08:37;;;;;;;18.40;13.82;;;;;;;21.92;87.12;69201.88;4925605;28;20124;-76
2022/08/18 11:11:10;;;;;;;14.13;12.40;;;;;;;22.09;87.48;69221.31;4926629;29;20122;-76
2022/08/18 11:14:00;;;;;;;16.42;13.18;;;;;;;22.08;87.55;69220.75;4927355;29;20047;-76
2022/08/18 11:16:42;;;;;;;16.13;12.50;;;;;;;22.05;85.93;69219.47;4904231;29;20048;-76
2022/08/18 11:19:14;;;;;;;16.08;13.70;;;;;;;21.86;86.40;69198.84;4925894;29;20102;-77
2022/08/18 11:21:45;;;;;;;16.48;12.23;;;;;;;22.11;87.41;69223.63;4922727;29;20048;-76
2022/08/18 11:24:17;;;;;;;15.90;14.18;;;;;;;22.12;85.88;69226.91;4921620;29;20039;-77
2022/08/18 11:26:48;;;;;;;15.70;12.85;;;;;;;22.14;86.94;69229.78;4925713;29;20562;-76
2022/08/18 11:29:34;;;;;;;16.92;13.32;;;;;;;22.20;85.98;69239.38;4926163;29;20595;-77
2022/08/18 11:32:10;;;;;;;18.85;13.95;;;;;;;22.19;85.66;69238.22;4926949;29;20043;-77
2022/08/18 11:34:41;;;;;;;16.63;14.52;;;;;;;22.12;86.23;69227.47;4928058;29;20039;-76
2022/08/18 11:37:22;;;;;;;18.05;14.93;;;;;;;22.21;86.13;69240.53;4928399;29;20059;-76
2022/08/18 11:39:51;;;;;;;16.08;13.82;;;;;;;22.37;86.84;69249.56;4930783;29;20066;-76
2022/08/18 11:42:18;;;;;;;17.48;12.38;;;;;;;22.36;85.76;69256.56;4921288;29;20039;-76
2022/08/18 11:44:44;;;;;;;16.80;13.25;;;;;;;22.41;85.82;69254.13;4931012;29;20044;-76
2022/08/18 11:47:17;;;;;;;17.42;13.85;;;;;;;22.35;83.40;69255.41;4928092;29;20088;-76
2022/08/18 11:49:58;;;;;;;14.27;12.55;;;;;;;22.48;84.72;69262.72;4929603;29;20050;-77
2022/08/18 11:52:26;;;;;;;19.70;14.13;;;;;;;22.55;84.54;69278.31;4925017;29;20051;-77
2022/08/18 11:54:59;;;;;;;16.98;14.38;;;;;;;22.52;85.16;69275.44;4931076;29;20118;-77
2022/08/18 11:57:37;;;;;;;17.55;14.45;;;;;;;22.59;83.74;69277.47;4924932;29;20051;-77
2022/08/18 12:00:35;;;;;;;17.25;13.65;;;;;;;23.06;84.41;69335.59;4928829;29;20044;-77
2022/08/18 12:03:26;;;;;;;11.60;10.33;;;;;;;23.10;79.56;69334.75;4918084;29;20055;-77
2022/08/18 12:05:58;;;;;;;13.60;12.05;;;;;;;22.86;79.72;69307.25;4913332;29;20051;-77
2022/08/18 12:08:36;;;;;;;13.23;11.82;;;;;;;22.92;80.26;69316.81;4910804;29;20118;-77
2022/08/18 12:11:14;;;;;;;12.13;10.55;;;;;;;22.97;80.27;69322.56;4928631;29;20051;-77
2022/08/18 12:13:45;;;;;;;12.82;11.30;;;;;;;23.18;81.75;69343.91;4923857;29;20035;-77